createdAt,value
2022-10-31T00:09:12.828Z,77.32
2022-10-31T00:19:12.782Z,77.65
2022-10-31T00:29:12.884Z,77.84
2022-10-31T00:39:13.134Z,78.05
2022-10-31T00:49:12.805Z,78.09
2022-10-31T00:59:13.193Z,78.26
2022-10-31T01:09:12.960Z,78.23
2022-10-31T01:19:12.925Z,78.15
2022-10-31T01:29:12.897Z,78.12
2022-10-31T01:39:12.966Z,78.24
2022-10-31T01:49:13.131Z,78.33
2022-10-31T01:59:14.498Z,78.52
2022-10-31T02:09:13.899Z,78.69
2022-10-31T02:19:13.961Z,78.91
2022-10-31T02:29:18.893Z,79.07
2022-10-31T02:39:19.129Z,79.29
2022-10-31T02:49:18.999Z,79.32
2022-10-31T02:59:20.959Z,79.36
2022-10-31T03:09:21.589Z,79.50
2022-10-31T03:19:21.071Z,79.48
2022-10-31T03:29:22.145Z,79.66
2022-10-31T03:39:22.118Z,79.74
2022-10-31T03:49:22.910Z,79.83
2022-10-31T03:59:22.362Z,79.85
2022-10-31T04:09:22.429Z,79.85
2022-10-31T04:19:22.303Z,79.96
2022-10-31T04:29:22.388Z,80.04
2022-10-31T04:39:26.561Z,80.11
2022-10-31T04:49:25.281Z,80.39
2022-10-31T04:59:27.048Z,80.58
2022-10-31T05:09:27.146Z,80.64
2022-10-31T05:19:31.954Z,80.77
2022-10-31T05:29:31.985Z,80.78
2022-10-31T05:39:35.185Z,80.82
2022-10-31T05:49:53.678Z,80.90
2022-10-31T05:59:55.004Z,81.06
2022-10-31T06:09:55.388Z,81.17
2022-10-31T06:19:56.101Z,81.25
2022-10-31T06:30:00.259Z,81.35
2022-10-31T06:40:00.474Z,81.36
2022-10-31T06:50:00.804Z,81.23
2022-10-31T07:00:08.170Z,80.95
2022-10-31T07:10:09.239Z,80.68
2022-10-31T07:20:09.558Z,80.48
2022-10-31T07:30:09.423Z,80.41
2022-10-31T07:40:09.808Z,80.26
2022-10-31T07:50:28.295Z,79.60
2022-10-31T08:00:27.757Z,78.87
2022-10-31T08:10:28.415Z,78.28
2022-10-31T08:20:28.768Z,77.76
2022-10-31T08:30:47.120Z,77.41
2022-10-31T08:40:46.491Z,76.81
2022-10-31T08:50:48.726Z,76.20
2022-10-31T09:00:53.395Z,74.35
2022-10-31T09:10:55.338Z,74.48
2022-10-31T09:20:55.871Z,74.33
2022-10-31T09:30:57.335Z,73.75
2022-10-31T09:40:57.039Z,72.92
2022-10-31T09:51:01.314Z,71.77
2022-10-31T10:01:01.534Z,71.14
2022-10-31T10:11:03.457Z,70.39
2022-10-31T10:21:02.553Z,69.77
2022-10-31T10:31:02.617Z,69.58
2022-10-31T10:41:02.557Z,68.04
2022-10-31T10:51:02.722Z,66.46
2022-10-31T11:01:02.798Z,65.92
2022-10-31T11:11:02.697Z,64.69
2022-10-31T11:21:02.685Z,63.33
2022-10-31T11:31:02.643Z,61.87
2022-10-31T11:41:02.705Z,61.04
2022-10-31T11:51:02.677Z,60.09
2022-10-31T12:01:02.764Z,59.26
2022-10-31T12:11:02.713Z,59.03
2022-10-31T12:21:02.746Z,58.99
2022-10-31T12:31:02.761Z,58.59
2022-10-31T12:41:02.735Z,58.29
2022-10-31T12:51:02.755Z,58.54
2022-10-31T13:01:03.031Z,58.58
2022-10-31T13:11:02.792Z,58.54
2022-10-31T13:21:02.834Z,58.35
2022-10-31T13:31:02.874Z,57.96
2022-10-31T13:41:05.841Z,58.09
2022-10-31T13:51:05.906Z,58.02
2022-10-31T14:01:05.961Z,58.27
2022-10-31T14:11:05.986Z,58.76
2022-10-31T14:21:05.931Z,59.22
2022-10-31T14:31:05.971Z,59.28
2022-10-31T14:41:05.907Z,59.31
2022-10-31T14:51:06.026Z,59.31
2022-10-31T15:01:06.112Z,59.02
2022-10-31T15:11:06.071Z,58.82
2022-10-31T15:21:09.924Z,58.48
2022-10-31T15:31:06.993Z,58.21
2022-10-31T15:41:07.106Z,58.35
2022-10-31T15:51:07.067Z,58.56
2022-10-31T16:01:07.283Z,58.73
2022-10-31T16:11:07.124Z,59.20
2022-10-31T16:21:07.077Z,59.63
2022-10-31T16:31:07.080Z,59.94
2022-10-31T16:41:07.107Z,60.26
2022-10-31T16:51:07.068Z,60.63
2022-10-31T17:01:07.275Z,60.91
2022-10-31T17:11:07.413Z,61.34
2022-10-31T17:21:07.138Z,61.71
2022-10-31T17:31:07.159Z,61.93
2022-10-31T17:41:10.891Z,62.11
2022-10-31T17:51:10.372Z,62.20
2022-10-31T18:01:10.415Z,62.45
2022-10-31T18:11:10.212Z,62.58
2022-10-31T18:21:10.277Z,62.81
2022-10-31T18:31:10.261Z,63.09
2022-10-31T18:41:10.344Z,63.30
2022-10-31T18:51:10.336Z,63.44
2022-10-31T19:01:10.623Z,63.46
2022-10-31T19:11:10.360Z,63.52
2022-10-31T19:21:10.322Z,63.79
2022-10-31T19:31:10.380Z,64.04
2022-10-31T19:41:10.313Z,64.23
2022-10-31T19:51:10.358Z,64.53
2022-10-31T20:01:10.488Z,64.68
2022-10-31T20:11:10.659Z,64.88
2022-10-31T20:21:10.491Z,65.01
2022-10-31T20:31:10.422Z,65.14
2022-10-31T20:41:10.430Z,65.19
2022-10-31T20:51:10.503Z,65.27
2022-10-31T21:01:10.615Z,65.23
2022-10-31T21:11:10.500Z,65.13
2022-10-31T21:21:10.495Z,65.10
2022-10-31T21:31:10.531Z,65.19
2022-10-31T21:41:10.574Z,65.29
2022-10-31T21:51:10.503Z,65.39
2022-10-31T22:01:10.629Z,65.68
2022-10-31T22:11:10.535Z,65.95
2022-10-31T22:21:10.530Z,66.14
2022-10-31T22:41:10.561Z,66.50
2022-10-31T22:51:10.582Z,66.62
2022-10-31T23:01:10.694Z,66.68
2022-10-31T23:11:10.612Z,66.77
2022-10-31T23:21:10.644Z,66.78
2022-10-31T23:31:10.637Z,66.67
2022-10-31T23:41:10.643Z,66.65
2022-10-31T23:51:10.646Z,66.81
